ECGCM EKBI-LELL
Flight info
| Callsign | ECGCM |
|---|---|
| Flight time | 2h 2m |
| Altitude | 38000 |
| Route | ALS M852 EKERN N125 ELSOB M170 STADE Y348 DOMEG DCT SUTAL/N0521F390 DCT GILIR T14 ONNOF DCT BELUS/N0522F380 DCT LSE/N0521F390 UY305 ESIDA DCT EQLIQ DCT PUMAL N859 XEPLA DCT SLL VFR |
| Aircraft | C750/M-SBDE3FGHRWXY/S |
Departure
| Time | 2026-05-07 18:04 |
|---|---|
| Airport | Billund Airport (EKBI) |
Arrival
| Time | 2026-05-07 20:07 |
|---|---|
| Airport | Sabadell Airfield (LELL) |
| Time | Latitude | Longitude | Altitude | Speed | Heading |
|---|---|---|---|---|---|
| 2026-05-07 17:48 | 55.73746 | 9.13616 | 222 ft | 0 kts | 176° |
| 2026-05-07 17:56 | 55.73760 | 9.13614 | 222 ft | 2 kts | 176° |
| 2026-05-07 17:56 | 55.73777 | 9.13611 | 222 ft | 2 kts | 135° |
| 2026-05-07 17:56 | 55.73780 | 9.13604 | 222 ft | 0 kts | 83° |
| 2026-05-07 17:58 | 55.73781 | 9.13622 | 222 ft | 7 kts | 81° |
| 2026-05-07 17:58 | 55.73828 | 9.13769 | 223 ft | 18 kts | 75° |
| 2026-05-07 17:58 | 55.73838 | 9.13975 | 224 ft | 16 kts | 85° |
| 2026-05-07 17:58 | 55.73849 | 9.14149 | 225 ft | 13 kts | 76° |
| 2026-05-07 17:59 | 55.73880 | 9.14272 | 226 ft | 0 kts | 57° |
| 2026-05-07 18:00 | 55.73916 | 9.14346 | 226 ft | 14 kts | 48° |
| 2026-05-07 18:00 | 55.73999 | 9.14490 | 227 ft | 17 kts | 44° |
| 2026-05-07 18:01 | 55.74052 | 9.14514 | 227 ft | 6 kts | 24° |
| 2026-05-07 18:01 | 55.74169 | 9.14514 | 228 ft | 19 kts | 43° |
| 2026-05-07 18:01 | 55.74190 | 9.14786 | 229 ft | 27 kts | 88° |
| 2026-05-07 18:01 | 55.74202 | 9.15118 | 232 ft | 30 kts | 87° |
| 2026-05-07 18:02 | 55.74223 | 9.15858 | 236 ft | 27 kts | 87° |
| 2026-05-07 18:02 | 55.74236 | 9.16192 | 238 ft | 31 kts | 88° |
| 2026-05-07 18:02 | 55.74247 | 9.16585 | 241 ft | 31 kts | 85° |
| 2026-05-07 18:03 | 55.74249 | 9.16858 | 243 ft | 12 kts | 123° |
| 2026-05-07 18:03 | 55.74177 | 9.16911 | 243 ft | 4 kts | 174° |
| 2026-05-07 18:03 | 55.74134 | 9.16914 | 244 ft | 12 kts | 186° |
| 2026-05-07 18:03 | 55.74085 | 9.16703 | 244 ft | 26 kts | 266° |
| 2026-05-07 18:04 | 55.74057 | 9.15844 | 233 ft | 119 kts | 266° |
| 2026-05-07 18:04 | 55.74004 | 9.14152 | 578 ft | 135 kts | 268° |
| 2026-05-07 18:04 | 55.74007 | 9.12434 | 1091 ft | 153 kts | 281° |
| 2026-05-07 18:04 | 55.74507 | 9.10550 | 1331 ft | 186 kts | 304° |
| 2026-05-07 18:05 | 55.75386 | 9.08628 | 1672 ft | 210 kts | 308° |
| 2026-05-07 18:05 | 55.76294 | 9.06618 | 2468 ft | 209 kts | 307° |
| 2026-05-07 18:05 | 55.77240 | 9.04487 | 2961 ft | 232 kts | 306° |
| 2026-05-07 18:05 | 55.78297 | 9.02110 | 3425 ft | 257 kts | 307° |
| 2026-05-07 18:06 | 55.79282 | 8.99499 | 4227 ft | 261 kts | 291° |
| 2026-05-07 18:06 | 55.79492 | 8.96290 | 5136 ft | 261 kts | 262° |
| 2026-05-07 18:06 | 55.78857 | 8.93333 | 6015 ft | 263 kts | 234° |
| 2026-05-07 18:06 | 55.77484 | 8.91217 | 6890 ft | 265 kts | 206° |
| 2026-05-07 18:07 | 55.75696 | 8.90513 | 7787 ft | 268 kts | 178° |
| 2026-05-07 18:07 | 55.73904 | 8.91449 | 8711 ft | 273 kts | 150° |
| 2026-05-07 18:07 | 55.72348 | 8.93404 | 9668 ft | 276 kts | 143° |
| 2026-05-07 18:07 | 55.70805 | 8.95516 | 10433 ft | 285 kts | 142° |
| 2026-05-07 18:08 | 55.69162 | 8.97726 | 10674 ft | 309 kts | 143° |
| 2026-05-07 18:08 | 55.67359 | 9.00095 | 10772 ft | 336 kts | 143° |
| 2026-05-07 18:08 | 55.65438 | 9.02623 | 11239 ft | 346 kts | 143° |
| 2026-05-07 18:08 | 55.63536 | 9.05145 | 12021 ft | 341 kts | 143° |
| 2026-05-07 18:09 | 55.61576 | 9.07741 | 12155 ft | 363 kts | 143° |
| 2026-05-07 18:09 | 55.59568 | 9.10383 | 13143 ft | 355 kts | 143° |
| 2026-05-07 18:09 | 55.57574 | 9.13007 | 13773 ft | 362 kts | 143° |
| 2026-05-07 18:09 | 55.55542 | 9.15683 | 14358 ft | 366 kts | 143° |
| 2026-05-07 18:10 | 55.53824 | 9.18954 | 14778 ft | 374 kts | 121° |
| 2026-05-07 18:10 | 55.53023 | 9.23305 | 15408 ft | 372 kts | 101° |
| 2026-05-07 18:10 | 55.52158 | 9.27551 | 16382 ft | 363 kts | 116° |
| 2026-05-07 18:10 | 55.50691 | 9.31266 | 16516 ft | 381 kts | 136° |
| 2026-05-07 18:11 | 55.48506 | 9.33945 | 17130 ft | 381 kts | 150° |
| 2026-05-07 18:11 | 55.46964 | 9.35428 | 17634 ft | 382 kts | 153° |
| 2026-05-07 18:11 | 55.43824 | 9.38499 | 18430 ft | 390 kts | 149° |
| 2026-05-07 18:11 | 55.41564 | 9.41199 | 19017 ft | 394 kts | 145° |
| 2026-05-07 18:12 | 55.39346 | 9.43980 | 19589 ft | 397 kts | 146° |
| 2026-05-07 18:12 | 55.37012 | 9.46649 | 20199 ft | 401 kts | 148° |
| 2026-05-07 18:12 | 55.34633 | 9.49258 | 20799 ft | 405 kts | 148° |
| 2026-05-07 18:12 | 55.32266 | 9.51973 | 21401 ft | 408 kts | 147° |
| 2026-05-07 18:13 | 55.29890 | 9.54774 | 21989 ft | 412 kts | 147° |
| 2026-05-07 18:13 | 55.27481 | 9.57545 | 22577 ft | 416 kts | 147° |
| 2026-05-07 18:13 | 55.25035 | 9.60302 | 23173 ft | 419 kts | 148° |
| 2026-05-07 18:13 | 55.22602 | 9.63070 | 23722 ft | 424 kts | 147° |
| 2026-05-07 18:14 | 55.20128 | 9.65915 | 24211 ft | 427 kts | 147° |
| 2026-05-07 18:14 | 55.17634 | 9.68765 | 24719 ft | 430 kts | 147° |
| 2026-05-07 18:14 | 55.15107 | 9.71628 | 25214 ft | 433 kts | 147° |
| 2026-05-07 18:14 | 55.12570 | 9.74500 | 25706 ft | 436 kts | 147° |
| 2026-05-07 18:15 | 55.10021 | 9.77396 | 26201 ft | 439 kts | 147° |
| 2026-05-07 18:15 | 55.07449 | 9.80313 | 26707 ft | 442 kts | 147° |
| 2026-05-07 18:15 | 55.04855 | 9.83243 | 27230 ft | 444 kts | 147° |
| 2026-05-07 18:15 | 55.02285 | 9.86139 | 27756 ft | 447 kts | 147° |
| 2026-05-07 18:16 | 54.99668 | 9.89089 | 28290 ft | 450 kts | 146° |
| 2026-05-07 18:16 | 54.97030 | 9.92060 | 28830 ft | 452 kts | 146° |
| 2026-05-07 18:16 | 54.94268 | 9.94708 | 29271 ft | 457 kts | 155° |
| 2026-05-07 18:16 | 54.91250 | 9.96503 | 29810 ft | 460 kts | 165° |
| 2026-05-07 18:17 | 54.88083 | 9.97397 | 30283 ft | 464 kts | 174° |
| 2026-05-07 18:17 | 54.84843 | 9.97341 | 30676 ft | 468 kts | 184° |
| 2026-05-07 18:17 | 54.81615 | 9.96424 | 31065 ft | 471 kts | 190° |
| 2026-05-07 18:17 | 54.78401 | 9.95353 | 31648 ft | 469 kts | 190° |
| 2026-05-07 18:18 | 54.75186 | 9.94306 | 32213 ft | 469 kts | 189° |
| 2026-05-07 18:18 | 54.72009 | 9.93281 | 32733 ft | 470 kts | 189° |
| 2026-05-07 18:18 | 54.68794 | 9.92232 | 33296 ft | 469 kts | 189° |
| 2026-05-07 18:18 | 54.65583 | 9.91170 | 33855 ft | 469 kts | 189° |
| 2026-05-07 18:19 | 54.62438 | 9.89564 | 34298 ft | 471 kts | 198° |
| 2026-05-07 18:19 | 54.59351 | 9.87691 | 34847 ft | 469 kts | 198° |
| 2026-05-07 18:19 | 54.56269 | 9.85895 | 35420 ft | 466 kts | 198° |
| 2026-05-07 18:19 | 54.53202 | 9.84120 | 35980 ft | 464 kts | 198° |
| 2026-05-07 18:20 | 54.50149 | 9.82313 | 36500 ft | 463 kts | 199° |
| 2026-05-07 18:20 | 54.47110 | 9.80503 | 37111 ft | 460 kts | 199° |
| 2026-05-07 18:20 | 54.44131 | 9.78757 | 37807 ft | 456 kts | 199° |
| 2026-05-07 18:20 | 54.41118 | 9.77005 | 38107 ft | 461 kts | 199° |
| 2026-05-07 18:21 | 54.38040 | 9.75203 | 38102 ft | 472 kts | 199° |
| 2026-05-07 18:21 | 54.34902 | 9.73361 | 38101 ft | 483 kts | 199° |
| 2026-05-07 18:21 | 54.31692 | 9.71487 | 38112 ft | 492 kts | 199° |
| 2026-05-07 18:22 | 54.25115 | 9.67668 | 38120 ft | 505 kts | 199° |
| 2026-05-07 18:22 | 54.18385 | 9.63761 | 38117 ft | 515 kts | 199° |
| 2026-05-07 18:23 | 54.11559 | 9.59820 | 38116 ft | 520 kts | 199° |
| 2026-05-07 18:23 | 54.04691 | 9.55862 | 38117 ft | 521 kts | 199° |
| 2026-05-07 18:24 | 53.98972 | 9.52584 | 37947 ft | 521 kts | 199° |
| 2026-05-07 18:24 | 53.95079 | 9.50359 | 37698 ft | 521 kts | 199° |
| 2026-05-07 18:24 | 53.91644 | 9.48398 | 37459 ft | 521 kts | 199° |
| 2026-05-07 18:24 | 53.88196 | 9.46427 | 37245 ft | 522 kts | 199° |
| 2026-05-07 18:25 | 53.84753 | 9.44458 | 37124 ft | 522 kts | 199° |
| 2026-05-07 18:25 | 53.77859 | 9.40515 | 37145 ft | 521 kts | 199° |
| 2026-05-07 18:25 | 53.74433 | 9.38554 | 37351 ft | 518 kts | 199° |
| 2026-05-07 18:26 | 53.71028 | 9.36605 | 37631 ft | 514 kts | 199° |
| 2026-05-07 18:26 | 53.67682 | 9.34687 | 37862 ft | 512 kts | 199° |
| 2026-05-07 18:26 | 53.64311 | 9.32753 | 37959 ft | 513 kts | 199° |
| 2026-05-07 18:27 | 53.57494 | 9.28834 | 37750 ft | 521 kts | 199° |
| 2026-05-07 18:27 | 53.54060 | 9.26860 | 37570 ft | 521 kts | 199° |
| 2026-05-07 18:27 | 53.50628 | 9.24886 | 37386 ft | 521 kts | 199° |
| 2026-05-07 18:28 | 53.43770 | 9.20948 | 37196 ft | 521 kts | 199° |
| 2026-05-07 18:28 | 53.36905 | 9.17018 | 37272 ft | 521 kts | 199° |
| 2026-05-07 18:28 | 53.33475 | 9.15061 | 37387 ft | 519 kts | 199° |
| 2026-05-07 18:29 | 53.30065 | 9.13122 | 37545 ft | 517 kts | 199° |
| 2026-05-07 18:29 | 53.26724 | 9.11247 | 38056 ft | 501 kts | 198° |
| 2026-05-07 18:29 | 53.23413 | 9.09677 | 38069 ft | 495 kts | 195° |
| 2026-05-07 18:30 | 53.16717 | 9.06643 | 38086 ft | 507 kts | 199° |
| 2026-05-07 18:30 | 53.10039 | 9.02582 | 38107 ft | 515 kts | 200° |
| 2026-05-07 18:31 | 53.03151 | 8.99043 | 38107 ft | 520 kts | 198° |
| 2026-05-07 18:31 | 52.97451 | 8.95836 | 38109 ft | 521 kts | 200° |
| 2026-05-07 18:32 | 52.90566 | 8.92096 | 38106 ft | 521 kts | 198° |
| 2026-05-07 18:32 | 52.83670 | 8.88376 | 38102 ft | 521 kts | 199° |
| 2026-05-07 18:33 | 52.76781 | 8.84625 | 38098 ft | 521 kts | 199° |
| 2026-05-07 18:33 | 52.69875 | 8.80933 | 38099 ft | 521 kts | 199° |
| 2026-05-07 18:34 | 52.62984 | 8.77211 | 38103 ft | 521 kts | 199° |
| 2026-05-07 18:34 | 52.56126 | 8.73560 | 38107 ft | 521 kts | 199° |
| 2026-05-07 18:35 | 52.49225 | 8.69867 | 38109 ft | 521 kts | 199° |
| 2026-05-07 18:35 | 52.42324 | 8.66208 | 38106 ft | 521 kts | 199° |
| 2026-05-07 18:36 | 52.35416 | 8.62542 | 38105 ft | 521 kts | 199° |
| 2026-05-07 18:36 | 52.28732 | 8.58222 | 38097 ft | 519 kts | 210° |
| 2026-05-07 18:37 | 52.23020 | 8.51087 | 38102 ft | 517 kts | 226° |
| 2026-05-07 18:37 | 52.18327 | 8.42200 | 38117 ft | 517 kts | 231° |
| 2026-05-07 18:38 | 52.13555 | 8.33450 | 38115 ft | 517 kts | 226° |
| 2026-05-07 18:38 | 52.08633 | 8.24928 | 38110 ft | 516 kts | 229° |
| 2026-05-07 18:39 | 52.03878 | 8.16272 | 38106 ft | 516 kts | 227° |
| 2026-05-07 18:39 | 51.98969 | 8.07766 | 38101 ft | 516 kts | 228° |
| 2026-05-07 18:40 | 51.94151 | 7.99143 | 38104 ft | 516 kts | 227° |
| 2026-05-07 18:40 | 51.89254 | 7.90635 | 38099 ft | 516 kts | 227° |
| 2026-05-07 18:41 | 51.84404 | 7.82083 | 38099 ft | 515 kts | 228° |
| 2026-05-07 18:41 | 51.79519 | 7.73599 | 38094 ft | 515 kts | 227° |
| 2026-05-07 18:42 | 51.74648 | 7.65121 | 38084 ft | 515 kts | 227° |
| 2026-05-07 18:42 | 51.70061 | 7.59011 | 38074 ft | 517 kts | 213° |
| 2026-05-07 18:43 | 51.62352 | 7.53633 | 38082 ft | 519 kts | 199° |
| 2026-05-07 18:43 | 51.55486 | 7.50252 | 38076 ft | 518 kts | 200° |
| 2026-05-07 18:44 | 51.48724 | 7.46192 | 38080 ft | 519 kts | 200° |
| 2026-05-07 18:44 | 51.41858 | 7.42587 | 38080 ft | 519 kts | 200° |
| 2026-05-07 18:45 | 51.35061 | 7.38710 | 38083 ft | 518 kts | 201° |
| 2026-05-07 18:45 | 51.28218 | 7.35013 | 38084 ft | 518 kts | 200° |
| 2026-05-07 18:46 | 51.21489 | 7.31285 | 38077 ft | 518 kts | 201° |
| 2026-05-07 18:46 | 51.14707 | 7.27587 | 38075 ft | 518 kts | 200° |
| 2026-05-07 18:47 | 51.07887 | 7.23866 | 38072 ft | 518 kts | 200° |
| 2026-05-07 18:47 | 51.01088 | 7.20165 | 38068 ft | 518 kts | 200° |
| 2026-05-07 18:48 | 50.94223 | 7.16451 | 38072 ft | 518 kts | 200° |
| 2026-05-07 18:48 | 50.87433 | 7.12775 | 38069 ft | 518 kts | 200° |
| 2026-05-07 18:49 | 50.80601 | 7.09100 | 38068 ft | 518 kts | 200° |
| 2026-05-07 18:49 | 50.73773 | 7.05429 | 38069 ft | 518 kts | 200° |
| 2026-05-07 18:50 | 50.66984 | 7.01798 | 38063 ft | 518 kts | 200° |
| 2026-05-07 18:50 | 50.60152 | 6.98149 | 38053 ft | 517 kts | 200° |
| 2026-05-07 18:51 | 50.53331 | 6.94521 | 38050 ft | 517 kts | 200° |
| 2026-05-07 18:51 | 50.46508 | 6.90901 | 38045 ft | 517 kts | 200° |
| 2026-05-07 18:52 | 50.39699 | 6.87300 | 38048 ft | 517 kts | 200° |
| 2026-05-07 18:52 | 50.32879 | 6.83704 | 38045 ft | 516 kts | 200° |
| 2026-05-07 18:53 | 50.26113 | 6.80148 | 38043 ft | 516 kts | 200° |
| 2026-05-07 18:53 | 50.19305 | 6.76580 | 38050 ft | 516 kts | 200° |
| 2026-05-07 18:54 | 50.12501 | 6.73025 | 38036 ft | 515 kts | 200° |
| 2026-05-07 18:54 | 50.05696 | 6.69479 | 38024 ft | 515 kts | 200° |
| 2026-05-07 18:55 | 49.98891 | 6.65945 | 38026 ft | 515 kts | 200° |
| 2026-05-07 18:55 | 49.92091 | 6.62424 | 38025 ft | 515 kts | 200° |
| 2026-05-07 18:56 | 49.85345 | 6.58940 | 38031 ft | 514 kts | 200° |
| 2026-05-07 18:56 | 49.78549 | 6.55442 | 38039 ft | 514 kts | 200° |
| 2026-05-07 18:57 | 49.71746 | 6.51951 | 38052 ft | 514 kts | 200° |
| 2026-05-07 18:57 | 49.65058 | 6.48531 | 38931 ft | 496 kts | 200° |
| 2026-05-07 18:57 | 49.61754 | 6.46844 | 39041 ft | 497 kts | 200° |
| 2026-05-07 18:58 | 49.58450 | 6.45153 | 39040 ft | 502 kts | 200° |
| 2026-05-07 18:58 | 49.51752 | 6.41748 | 39045 ft | 510 kts | 200° |
| 2026-05-07 18:59 | 49.44846 | 6.39036 | 39040 ft | 517 kts | 189° |
| 2026-05-07 18:59 | 49.37638 | 6.38588 | 39071 ft | 519 kts | 183° |
| 2026-05-07 19:00 | 49.30424 | 6.38091 | 39067 ft | 518 kts | 186° |
| 2026-05-07 19:00 | 49.23219 | 6.37602 | 39060 ft | 518 kts | 184° |
| 2026-05-07 19:01 | 49.16059 | 6.37158 | 39053 ft | 518 kts | 185° |
| 2026-05-07 19:01 | 49.08851 | 6.36655 | 39052 ft | 518 kts | 185° |
| 2026-05-07 19:02 | 49.01621 | 6.36209 | 39042 ft | 518 kts | 185° |
| 2026-05-07 19:02 | 48.94410 | 6.35717 | 39041 ft | 519 kts | 185° |
| 2026-05-07 19:03 | 48.87234 | 6.35266 | 39041 ft | 519 kts | 185° |
| 2026-05-07 19:03 | 48.80016 | 6.34788 | 39045 ft | 519 kts | 185° |
| 2026-05-07 19:04 | 48.72791 | 6.34327 | 39042 ft | 519 kts | 185° |
| 2026-05-07 19:04 | 48.65556 | 6.33856 | 39035 ft | 519 kts | 185° |
| 2026-05-07 19:05 | 48.58321 | 6.33393 | 39044 ft | 520 kts | 185° |
| 2026-05-07 19:05 | 48.51097 | 6.32929 | 39046 ft | 519 kts | 185° |
| 2026-05-07 19:06 | 48.43864 | 6.32467 | 39051 ft | 520 kts | 185° |
| 2026-05-07 19:06 | 48.33060 | 6.31779 | 39042 ft | 519 kts | 185° |
| 2026-05-07 19:07 | 48.25834 | 6.31320 | 39040 ft | 519 kts | 185° |
| 2026-05-07 19:07 | 48.18607 | 6.30863 | 39043 ft | 519 kts | 185° |
| 2026-05-07 19:08 | 48.11378 | 6.30406 | 39043 ft | 519 kts | 185° |
| 2026-05-07 19:08 | 48.04195 | 6.29954 | 39040 ft | 520 kts | 185° |
| 2026-05-07 19:09 | 47.96971 | 6.29501 | 39045 ft | 519 kts | 185° |
| 2026-05-07 19:09 | 47.89739 | 6.29048 | 39038 ft | 519 kts | 185° |
| 2026-05-07 19:10 | 47.82511 | 6.28597 | 39040 ft | 519 kts | 185° |
| 2026-05-07 19:10 | 47.75282 | 6.28147 | 39042 ft | 519 kts | 185° |
| 2026-05-07 19:11 | 47.68105 | 6.27701 | 39042 ft | 518 kts | 185° |
| 2026-05-07 19:11 | 47.60892 | 6.27255 | 39043 ft | 518 kts | 185° |
| 2026-05-07 19:12 | 47.53695 | 6.26811 | 39041 ft | 517 kts | 185° |
| 2026-05-07 19:12 | 47.46524 | 6.26369 | 39041 ft | 517 kts | 185° |
| 2026-05-07 19:13 | 47.39307 | 6.25926 | 39038 ft | 517 kts | 185° |
| 2026-05-07 19:13 | 47.32158 | 6.25488 | 39042 ft | 517 kts | 185° |
| 2026-05-07 19:14 | 47.24975 | 6.25050 | 39037 ft | 516 kts | 185° |
| 2026-05-07 19:14 | 47.17792 | 6.24612 | 39035 ft | 516 kts | 185° |
| 2026-05-07 19:15 | 47.10666 | 6.23726 | 39034 ft | 511 kts | 194° |
| 2026-05-07 19:15 | 47.04056 | 6.20198 | 39043 ft | 504 kts | 210° |
| 2026-05-07 19:16 | 46.98395 | 6.14251 | 39048 ft | 500 kts | 222° |
| 2026-05-07 19:16 | 46.93953 | 6.08814 | 39056 ft | 500 kts | 221° |
| 2026-05-07 19:17 | 46.88583 | 6.02341 | 39047 ft | 500 kts | 221° |
| 2026-05-07 19:17 | 46.82366 | 5.94798 | 39039 ft | 499 kts | 221° |
| 2026-05-07 19:18 | 46.77871 | 5.89392 | 39031 ft | 499 kts | 221° |
| 2026-05-07 19:18 | 46.72515 | 5.82938 | 39027 ft | 499 kts | 221° |
| 2026-05-07 19:19 | 46.67154 | 5.76511 | 39023 ft | 499 kts | 221° |
| 2026-05-07 19:19 | 46.61819 | 5.70124 | 39017 ft | 499 kts | 221° |
| 2026-05-07 19:20 | 46.56456 | 5.63724 | 39012 ft | 498 kts | 221° |
| 2026-05-07 19:20 | 46.51091 | 5.57338 | 39008 ft | 498 kts | 221° |
| 2026-05-07 19:21 | 46.45730 | 5.50974 | 39007 ft | 497 kts | 221° |
| 2026-05-07 19:21 | 46.40363 | 5.44618 | 39000 ft | 498 kts | 221° |
| 2026-05-07 19:22 | 46.35031 | 5.38320 | 39004 ft | 498 kts | 221° |
| 2026-05-07 19:22 | 46.29658 | 5.31992 | 39000 ft | 497 kts | 221° |
| 2026-05-07 19:23 | 46.24287 | 5.25680 | 39000 ft | 497 kts | 220° |
| 2026-05-07 19:23 | 46.18911 | 5.19382 | 38999 ft | 497 kts | 220° |
| 2026-05-07 19:24 | 46.13530 | 5.13092 | 38993 ft | 497 kts | 220° |
| 2026-05-07 19:24 | 46.08144 | 5.06813 | 38992 ft | 498 kts | 220° |
| 2026-05-07 19:25 | 46.02759 | 5.00551 | 38991 ft | 498 kts | 220° |
| 2026-05-07 19:25 | 45.97360 | 4.94291 | 38988 ft | 498 kts | 220° |
| 2026-05-07 19:26 | 45.91999 | 4.88088 | 38988 ft | 498 kts | 220° |
| 2026-05-07 19:26 | 45.86592 | 4.81851 | 38988 ft | 498 kts | 220° |
| 2026-05-07 19:27 | 45.81187 | 4.75630 | 38991 ft | 498 kts | 220° |
| 2026-05-07 19:27 | 45.75775 | 4.69418 | 38994 ft | 498 kts | 220° |
| 2026-05-07 19:28 | 45.70366 | 4.63225 | 38997 ft | 498 kts | 220° |
| 2026-05-07 19:28 | 45.64947 | 4.57036 | 39002 ft | 498 kts | 220° |
| 2026-05-07 19:29 | 45.59524 | 4.50859 | 38991 ft | 498 kts | 220° |
| 2026-05-07 19:29 | 45.54100 | 4.44695 | 38987 ft | 498 kts | 220° |
| 2026-05-07 19:30 | 45.48662 | 4.38559 | 38984 ft | 498 kts | 218° |
| 2026-05-07 19:30 | 45.43048 | 4.32855 | 38993 ft | 499 kts | 217° |
| 2026-05-07 19:31 | 45.37394 | 4.27107 | 38997 ft | 499 kts | 217° |
| 2026-05-07 19:31 | 45.31749 | 4.21387 | 39005 ft | 499 kts | 217° |
| 2026-05-07 19:32 | 45.26090 | 4.15677 | 39008 ft | 499 kts | 217° |
| 2026-05-07 19:32 | 45.20433 | 4.09969 | 39013 ft | 499 kts | 217° |
| 2026-05-07 19:33 | 45.14760 | 4.04271 | 39014 ft | 499 kts | 217° |
| 2026-05-07 19:33 | 45.09096 | 3.98586 | 39011 ft | 499 kts | 217° |
| 2026-05-07 19:34 | 45.03464 | 3.92957 | 39014 ft | 499 kts | 217° |
| 2026-05-07 19:34 | 44.97788 | 3.87290 | 39008 ft | 498 kts | 217° |
| 2026-05-07 19:35 | 44.92123 | 3.81653 | 39008 ft | 498 kts | 217° |
| 2026-05-07 19:35 | 44.86439 | 3.76008 | 39012 ft | 499 kts | 217° |
| 2026-05-07 19:36 | 44.80800 | 3.70423 | 39011 ft | 499 kts | 217° |
| 2026-05-07 19:36 | 44.75107 | 3.64798 | 39004 ft | 499 kts | 217° |
| 2026-05-07 19:37 | 44.69416 | 3.59189 | 38986 ft | 499 kts | 217° |
| 2026-05-07 19:37 | 44.63732 | 3.53599 | 38993 ft | 499 kts | 217° |
| 2026-05-07 19:38 | 44.58072 | 3.48048 | 38991 ft | 499 kts | 217° |
| 2026-05-07 19:38 | 44.52377 | 3.42475 | 38994 ft | 499 kts | 217° |
| 2026-05-07 19:39 | 44.46670 | 3.36905 | 38990 ft | 499 kts | 217° |
| 2026-05-07 19:39 | 44.40960 | 3.31345 | 38983 ft | 500 kts | 217° |
| 2026-05-07 19:40 | 44.35251 | 3.25800 | 38988 ft | 500 kts | 216° |
| 2026-05-07 19:40 | 44.29526 | 3.20252 | 38992 ft | 500 kts | 216° |
| 2026-05-07 19:41 | 44.23801 | 3.14718 | 38985 ft | 501 kts | 216° |
| 2026-05-07 19:41 | 44.18106 | 3.09226 | 38995 ft | 501 kts | 216° |
| 2026-05-07 19:42 | 44.12363 | 3.03700 | 38989 ft | 501 kts | 216° |
| 2026-05-07 19:42 | 44.06627 | 2.98196 | 38988 ft | 501 kts | 216° |
| 2026-05-07 19:43 | 44.00868 | 2.92681 | 38992 ft | 502 kts | 216° |
| 2026-05-07 19:43 | 43.95143 | 2.87216 | 38988 ft | 503 kts | 216° |
| 2026-05-07 19:44 | 43.88861 | 2.82875 | 38995 ft | 508 kts | 204° |
| 2026-05-07 19:44 | 43.82284 | 2.79278 | 39005 ft | 508 kts | 204° |
| 2026-05-07 19:45 | 43.75741 | 2.75632 | 39005 ft | 508 kts | 204° |
| 2026-05-07 19:45 | 43.69142 | 2.72026 | 39003 ft | 508 kts | 204° |
| 2026-05-07 19:46 | 43.62570 | 2.68396 | 39000 ft | 509 kts | 204° |
| 2026-05-07 19:46 | 43.55975 | 2.64796 | 38999 ft | 509 kts | 204° |
| 2026-05-07 19:47 | 43.49430 | 2.61209 | 38998 ft | 509 kts | 204° |
| 2026-05-07 19:47 | 43.42844 | 2.57621 | 38991 ft | 509 kts | 204° |
| 2026-05-07 19:48 | 43.39545 | 2.55825 | 38405 ft | 509 kts | 204° |
| 2026-05-07 19:48 | 43.36277 | 2.54046 | 37704 ft | 503 kts | 204° |
| 2026-05-07 19:48 | 43.33034 | 2.52285 | 37038 ft | 498 kts | 204° |
| 2026-05-07 19:48 | 43.29821 | 2.50543 | 36376 ft | 492 kts | 204° |
| 2026-05-07 19:49 | 43.26657 | 2.48828 | 35726 ft | 486 kts | 204° |
| 2026-05-07 19:49 | 43.23523 | 2.47131 | 35083 ft | 480 kts | 204° |
| 2026-05-07 19:49 | 43.20469 | 2.45479 | 34457 ft | 474 kts | 204° |
| 2026-05-07 19:49 | 43.17417 | 2.43830 | 33822 ft | 469 kts | 204° |
| 2026-05-07 19:50 | 43.14388 | 2.42195 | 33181 ft | 469 kts | 203° |
| 2026-05-07 19:50 | 43.11327 | 2.40543 | 32566 ft | 474 kts | 203° |
| 2026-05-07 19:50 | 43.08242 | 2.38882 | 31937 ft | 477 kts | 203° |
| 2026-05-07 19:50 | 43.05143 | 2.37216 | 31306 ft | 481 kts | 203° |
| 2026-05-07 19:51 | 43.02030 | 2.35545 | 30670 ft | 478 kts | 203° |
| 2026-05-07 19:51 | 42.98950 | 2.33892 | 30055 ft | 474 kts | 203° |
| 2026-05-07 19:51 | 42.95896 | 2.32254 | 29398 ft | 471 kts | 203° |
| 2026-05-07 19:51 | 42.92850 | 2.30622 | 28782 ft | 469 kts | 203° |
| 2026-05-07 19:52 | 42.89801 | 2.28991 | 28167 ft | 467 kts | 203° |
| 2026-05-07 19:52 | 42.86789 | 2.27383 | 27562 ft | 464 kts | 203° |
| 2026-05-07 19:52 | 42.83784 | 2.25778 | 26951 ft | 464 kts | 202° |
| 2026-05-07 19:52 | 42.80786 | 2.24178 | 26346 ft | 462 kts | 202° |
| 2026-05-07 19:53 | 42.77790 | 2.22582 | 25743 ft | 461 kts | 202° |
| 2026-05-07 19:53 | 42.74806 | 2.20995 | 25138 ft | 460 kts | 202° |
| 2026-05-07 19:53 | 42.71861 | 2.19429 | 24532 ft | 461 kts | 202° |
| 2026-05-07 19:53 | 42.68846 | 2.17828 | 23929 ft | 461 kts | 202° |
| 2026-05-07 19:54 | 42.66608 | 2.16640 | 23457 ft | 462 kts | 202° |
| 2026-05-07 19:54 | 42.63619 | 2.15055 | 22830 ft | 458 kts | 202° |
| 2026-05-07 19:54 | 42.60656 | 2.13487 | 22230 ft | 456 kts | 202° |
| 2026-05-07 19:54 | 42.57709 | 2.11928 | 21632 ft | 453 kts | 202° |
| 2026-05-07 19:55 | 42.54779 | 2.10379 | 21036 ft | 451 kts | 202° |
| 2026-05-07 19:55 | 42.51849 | 2.08832 | 20444 ft | 449 kts | 202° |
| 2026-05-07 19:55 | 42.48942 | 2.07298 | 19856 ft | 447 kts | 202° |
| 2026-05-07 19:55 | 42.46040 | 2.05770 | 19257 ft | 445 kts | 202° |
| 2026-05-07 19:56 | 42.43159 | 2.04253 | 18695 ft | 444 kts | 202° |
| 2026-05-07 19:56 | 42.40292 | 2.02744 | 18078 ft | 442 kts | 202° |
| 2026-05-07 19:56 | 42.37405 | 2.01373 | 17450 ft | 438 kts | 195° |
| 2026-05-07 19:56 | 42.34383 | 2.01050 | 16890 ft | 435 kts | 179° |
| 2026-05-07 19:57 | 42.31368 | 2.01309 | 16351 ft | 434 kts | 176° |
| 2026-05-07 19:57 | 42.28362 | 2.01646 | 15779 ft | 430 kts | 176° |
| 2026-05-07 19:57 | 42.25391 | 2.01947 | 15212 ft | 426 kts | 176° |
| 2026-05-07 19:57 | 42.22437 | 2.02199 | 14648 ft | 424 kts | 177° |
| 2026-05-07 19:58 | 42.19542 | 2.02458 | 14097 ft | 421 kts | 176° |
| 2026-05-07 19:58 | 42.16624 | 2.02749 | 13513 ft | 418 kts | 176° |
| 2026-05-07 19:58 | 42.13734 | 2.03034 | 12959 ft | 414 kts | 176° |
| 2026-05-07 19:58 | 42.10959 | 2.03289 | 12422 ft | 385 kts | 176° |
| 2026-05-07 19:59 | 42.08375 | 2.03526 | 11927 ft | 357 kts | 176° |
| 2026-05-07 19:59 | 42.05967 | 2.03756 | 11467 ft | 335 kts | 175° |
| 2026-05-07 19:59 | 42.03710 | 2.03972 | 11040 ft | 316 kts | 175° |
| 2026-05-07 19:59 | 42.01594 | 2.04170 | 10637 ft | 301 kts | 175° |
| 2026-05-07 20:00 | 41.99549 | 2.04362 | 10253 ft | 290 kts | 175° |
| 2026-05-07 20:00 | 41.97550 | 2.04550 | 9867 ft | 286 kts | 175° |
| 2026-05-07 20:00 | 41.95568 | 2.04737 | 9477 ft | 284 kts | 175° |
| 2026-05-07 20:00 | 41.93601 | 2.04922 | 9103 ft | 283 kts | 175° |
| 2026-05-07 20:01 | 41.92097 | 2.05063 | 8814 ft | 282 kts | 175° |
| 2026-05-07 20:01 | 41.90121 | 2.05249 | 8444 ft | 281 kts | 175° |
| 2026-05-07 20:01 | 41.88176 | 2.05431 | 8074 ft | 279 kts | 175° |
| 2026-05-07 20:01 | 41.86240 | 2.05612 | 7702 ft | 278 kts | 175° |
| 2026-05-07 20:02 | 41.84317 | 2.05792 | 7332 ft | 276 kts | 175° |
| 2026-05-07 20:02 | 41.82400 | 2.05972 | 6963 ft | 275 kts | 175° |
| 2026-05-07 20:02 | 41.80494 | 2.06150 | 6601 ft | 274 kts | 175° |
| 2026-05-07 20:02 | 41.78601 | 2.06328 | 6222 ft | 272 kts | 175° |
| 2026-05-07 20:03 | 41.76737 | 2.06502 | 5859 ft | 271 kts | 175° |
| 2026-05-07 20:03 | 41.74860 | 2.06677 | 5497 ft | 270 kts | 175° |
| 2026-05-07 20:03 | 41.72984 | 2.06852 | 5153 ft | 269 kts | 175° |
| 2026-05-07 20:03 | 41.71121 | 2.07023 | 4780 ft | 268 kts | 175° |
| 2026-05-07 20:04 | 41.69273 | 2.07199 | 4410 ft | 265 kts | 175° |
| 2026-05-07 20:04 | 41.67462 | 2.07559 | 4063 ft | 263 kts | 168° |
| 2026-05-07 20:04 | 41.65654 | 2.07987 | 3646 ft | 263 kts | 169° |
| 2026-05-07 20:04 | 41.63856 | 2.08423 | 3238 ft | 261 kts | 169° |
| 2026-05-07 20:05 | 41.62662 | 2.08564 | 2898 ft | 261 kts | 180° |
| 2026-05-07 20:05 | 41.60857 | 2.08215 | 2365 ft | 256 kts | 189° |
| 2026-05-07 20:05 | 41.59095 | 2.07841 | 1963 ft | 253 kts | 194° |
| 2026-05-07 20:05 | 41.57437 | 2.07206 | 1978 ft | 249 kts | 189° |
| 2026-05-07 20:06 | 41.55732 | 2.07489 | 1915 ft | 252 kts | 155° |
| 2026-05-07 20:06 | 41.54183 | 2.08466 | 1690 ft | 222 kts | 156° |
| 2026-05-07 20:06 | 41.52960 | 2.09247 | 740 ft | 172 kts | 145° |
| 2026-05-07 20:06 | 41.52225 | 2.10273 | 479 ft | 136 kts | 128° |
| 2026-05-07 20:07 | 41.51852 | 2.10928 | 471 ft | 27 kts | 127° |
| 2026-05-07 20:07 | 41.51787 | 2.11044 | 470 ft | 8 kts | 113° |
| 2026-05-07 20:07 | 41.51818 | 2.11090 | 472 ft | 5 kts | 11° |
| 2026-05-07 20:07 | 41.51875 | 2.11089 | 471 ft | 9 kts | 340° |
| 2026-05-07 20:08 | 41.51931 | 2.10996 | 474 ft | 16 kts | 311° |
| 2026-05-07 20:08 | 41.52001 | 2.10869 | 474 ft | 17 kts | 307° |
| 2026-05-07 20:08 | 41.52067 | 2.10860 | 474 ft | 8 kts | 317° |
| 2026-05-07 20:08 | 41.52129 | 2.10752 | 474 ft | 17 kts | 307° |
| 2026-05-07 20:09 | 41.52188 | 2.10653 | 474 ft | 8 kts | 336° |
| 2026-05-07 20:09 | 41.52195 | 2.10699 | 489 ft | 10 kts | 126° |
| 2026-05-07 20:09 | 41.52159 | 2.10765 | 494 ft | 2 kts | 126° |
| 2026-05-07 20:10 | 41.52175 | 2.10789 | 479 ft | 1 kts | 37° |
| 2026-05-07 20:10 | 41.52177 | 2.10791 | 479 ft | 1 kts | 37° |
| 2026-05-07 20:10 | 41.52179 | 2.10792 | 479 ft | 0 kts | 38° |